BTK8182 WARR-WAAA
Flight info
| Callsign | BTK8182 |
|---|---|
| Flight time | 1h 15m |
| Altitude | 37000 |
| Route | PEDSO T15 ENDOG |
| Aircraft | B738/M-SDE2E3FGHIRWXY/LB1 |
Departure
| Time | 2026-04-29 02:37 |
|---|---|
| Airport | Juanda International Airport (WARR) |
Arrival
| Time | 2026-04-29 03:52 |
|---|---|
| Airport | Sultan Hasanuddin International Airport (WAAA) |
| Time | Latitude | Longitude | Altitude | Speed | Heading |
|---|---|---|---|---|---|
| 2026-04-29 02:16 | -7.37634 | 112.79708 | 8 ft | 0 kts | 9° |
| 2026-04-29 02:23 | -7.37648 | 112.79706 | 9 ft | 3 kts | 5° |
| 2026-04-29 02:23 | -7.37668 | 112.79705 | 11 ft | 3 kts | 356° |
| 2026-04-29 02:23 | -7.37688 | 112.79708 | 10 ft | 3 kts | 343° |
| 2026-04-29 02:24 | -7.37707 | 112.79715 | 10 ft | 3 kts | 323° |
| 2026-04-29 02:24 | -7.37720 | 112.79728 | 10 ft | 3 kts | 290° |
| 2026-04-29 02:24 | -7.37722 | 112.79735 | 9 ft | 0 kts | 279° |
| 2026-04-29 02:26 | -7.37722 | 112.79734 | 9 ft | 1 kts | 279° |
| 2026-04-29 02:26 | -7.37720 | 112.79718 | 10 ft | 4 kts | 277° |
| 2026-04-29 02:26 | -7.37714 | 112.79677 | 8 ft | 7 kts | 278° |
| 2026-04-29 02:27 | -7.37706 | 112.79622 | 8 ft | 8 kts | 279° |
| 2026-04-29 02:27 | -7.37697 | 112.79567 | 8 ft | 8 kts | 279° |
| 2026-04-29 02:27 | -7.37689 | 112.79514 | 8 ft | 8 kts | 279° |
| 2026-04-29 02:27 | -7.37693 | 112.79465 | 10 ft | 7 kts | 236° |
| 2026-04-29 02:28 | -7.37740 | 112.79443 | 8 ft | 8 kts | 190° |
| 2026-04-29 02:28 | -7.37803 | 112.79433 | 9 ft | 10 kts | 189° |
| 2026-04-29 02:28 | -7.37875 | 112.79421 | 9 ft | 10 kts | 190° |
| 2026-04-29 02:28 | -7.37917 | 112.79370 | 8 ft | 10 kts | 265° |
| 2026-04-29 02:29 | -7.37907 | 112.79301 | 10 ft | 10 kts | 279° |
| 2026-04-29 02:29 | -7.37896 | 112.79234 | 8 ft | 10 kts | 279° |
| 2026-04-29 02:29 | -7.37885 | 112.79169 | 8 ft | 9 kts | 279° |
| 2026-04-29 02:29 | -7.37875 | 112.79106 | 8 ft | 9 kts | 279° |
| 2026-04-29 02:30 | -7.37866 | 112.79045 | 8 ft | 9 kts | 279° |
| 2026-04-29 02:30 | -7.37856 | 112.78985 | 8 ft | 8 kts | 279° |
| 2026-04-29 02:30 | -7.37847 | 112.78927 | 8 ft | 8 kts | 279° |
| 2026-04-29 02:30 | -7.37838 | 112.78871 | 8 ft | 8 kts | 279° |
| 2026-04-29 02:31 | -7.37829 | 112.78816 | 8 ft | 8 kts | 279° |
| 2026-04-29 02:31 | -7.37818 | 112.78750 | 8 ft | 10 kts | 279° |
| 2026-04-29 02:31 | -7.37806 | 112.78675 | 8 ft | 11 kts | 279° |
| 2026-04-29 02:31 | -7.37793 | 112.78592 | 8 ft | 13 kts | 279° |
| 2026-04-29 02:32 | -7.37778 | 112.78497 | 8 ft | 15 kts | 279° |
| 2026-04-29 02:32 | -7.37761 | 112.78392 | 10 ft | 15 kts | 279° |
| 2026-04-29 02:32 | -7.37744 | 112.78290 | 8 ft | 15 kts | 280° |
| 2026-04-29 02:32 | -7.37728 | 112.78191 | 8 ft | 14 kts | 279° |
| 2026-04-29 02:33 | -7.37713 | 112.78098 | 8 ft | 13 kts | 279° |
| 2026-04-29 02:33 | -7.37698 | 112.78008 | 8 ft | 13 kts | 279° |
| 2026-04-29 02:33 | -7.37684 | 112.77920 | 8 ft | 13 kts | 279° |
| 2026-04-29 02:33 | -7.37670 | 112.77835 | 8 ft | 12 kts | 279° |
| 2026-04-29 02:34 | -7.37656 | 112.77748 | 8 ft | 13 kts | 279° |
| 2026-04-29 02:34 | -7.37642 | 112.77658 | 8 ft | 13 kts | 279° |
| 2026-04-29 02:34 | -7.37628 | 112.77570 | 8 ft | 13 kts | 279° |
| 2026-04-29 02:34 | -7.37614 | 112.77484 | 8 ft | 12 kts | 279° |
| 2026-04-29 02:35 | -7.37620 | 112.77409 | 9 ft | 11 kts | 237° |
| 2026-04-29 02:35 | -7.37668 | 112.77382 | 7 ft | 7 kts | 194° |
| 2026-04-29 02:35 | -7.37714 | 112.77374 | 7 ft | 6 kts | 187° |
| 2026-04-29 02:35 | -7.37757 | 112.77383 | 8 ft | 6 kts | 150° |
| 2026-04-29 02:36 | -7.37779 | 112.77420 | 8 ft | 6 kts | 99° |
| 2026-04-29 02:36 | -7.37796 | 112.77526 | 8 ft | 43 kts | 99° |
| 2026-04-29 02:36 | -7.37846 | 112.77834 | 8 ft | 91 kts | 99° |
| 2026-04-29 02:36 | -7.38057 | 112.79061 | 36 ft | 168 kts | 101° |
| 2026-04-29 02:37 | -7.38185 | 112.79832 | 474 ft | 167 kts | 99° |
| 2026-04-29 02:37 | -7.38380 | 112.80992 | 1253 ft | 170 kts | 96° |
| 2026-04-29 02:37 | -7.38599 | 112.82621 | 2067 ft | 187 kts | 99° |
| 2026-04-29 02:37 | -7.38752 | 112.83513 | 2226 ft | 204 kts | 99° |
| 2026-04-29 02:38 | -7.38993 | 112.85011 | 2417 ft | 229 kts | 98° |
| 2026-04-29 02:38 | -7.39261 | 112.86691 | 2687 ft | 252 kts | 98° |
| 2026-04-29 02:38 | -7.39543 | 112.88446 | 3451 ft | 254 kts | 98° |
| 2026-04-29 02:38 | -7.39828 | 112.90211 | 4201 ft | 257 kts | 98° |
| 2026-04-29 02:39 | -7.39843 | 112.92021 | 4872 ft | 263 kts | 76° |
| 2026-04-29 02:39 | -7.39126 | 112.93710 | 5656 ft | 265 kts | 59° |
| 2026-04-29 02:39 | -7.38062 | 112.95242 | 6367 ft | 269 kts | 54° |
| 2026-04-29 02:39 | -7.36913 | 112.96744 | 7057 ft | 272 kts | 53° |
| 2026-04-29 02:40 | -7.35748 | 112.98255 | 7719 ft | 276 kts | 53° |
| 2026-04-29 02:40 | -7.34572 | 112.99794 | 8430 ft | 278 kts | 53° |
| 2026-04-29 02:40 | -7.33388 | 113.01358 | 9037 ft | 284 kts | 53° |
| 2026-04-29 02:40 | -7.32188 | 113.02956 | 9726 ft | 287 kts | 54° |
| 2026-04-29 02:41 | -7.30986 | 113.04564 | 10326 ft | 292 kts | 54° |
| 2026-04-29 02:41 | -7.29725 | 113.06256 | 10525 ft | 312 kts | 54° |
| 2026-04-29 02:41 | -7.28382 | 113.08061 | 10690 ft | 332 kts | 53° |
| 2026-04-29 02:41 | -7.26967 | 113.09962 | 10958 ft | 346 kts | 54° |
| 2026-04-29 02:42 | -7.25781 | 113.12074 | 11417 ft | 349 kts | 71° |
| 2026-04-29 02:42 | -7.25028 | 113.14409 | 12010 ft | 352 kts | 72° |
| 2026-04-29 02:42 | -7.24277 | 113.16779 | 12527 ft | 358 kts | 72° |
| 2026-04-29 02:42 | -7.23511 | 113.19179 | 13070 ft | 362 kts | 72° |
| 2026-04-29 02:43 | -7.22730 | 113.21608 | 13572 ft | 367 kts | 72° |
| 2026-04-29 02:43 | -7.21934 | 113.24059 | 14140 ft | 369 kts | 72° |
| 2026-04-29 02:43 | -7.21133 | 113.26514 | 14735 ft | 370 kts | 72° |
| 2026-04-29 02:43 | -7.20325 | 113.28984 | 15311 ft | 372 kts | 72° |
| 2026-04-29 02:44 | -7.19508 | 113.31470 | 15792 ft | 377 kts | 72° |
| 2026-04-29 02:44 | -7.18680 | 113.33987 | 16353 ft | 378 kts | 72° |
| 2026-04-29 02:44 | -7.17854 | 113.36499 | 16954 ft | 380 kts | 72° |
| 2026-04-29 02:44 | -7.17018 | 113.39039 | 17384 ft | 385 kts | 72° |
| 2026-04-29 02:45 | -7.16173 | 113.41606 | 17957 ft | 386 kts | 72° |
| 2026-04-29 02:45 | -7.15325 | 113.44180 | 18407 ft | 390 kts | 72° |
| 2026-04-29 02:45 | -7.14472 | 113.46769 | 18930 ft | 389 kts | 72° |
| 2026-04-29 02:45 | -7.13616 | 113.49369 | 19301 ft | 394 kts | 72° |
| 2026-04-29 02:46 | -7.12749 | 113.52001 | 19743 ft | 396 kts | 72° |
| 2026-04-29 02:46 | -7.11868 | 113.54672 | 20161 ft | 399 kts | 72° |
| 2026-04-29 02:46 | -7.10991 | 113.57336 | 20578 ft | 402 kts | 72° |
| 2026-04-29 02:46 | -7.10108 | 113.60014 | 21019 ft | 404 kts | 72° |
| 2026-04-29 02:47 | -7.09219 | 113.62708 | 21382 ft | 407 kts | 72° |
| 2026-04-29 02:47 | -7.08325 | 113.65417 | 21827 ft | 409 kts | 72° |
| 2026-04-29 02:47 | -7.07425 | 113.68146 | 22191 ft | 413 kts | 72° |
| 2026-04-29 02:47 | -7.06518 | 113.70894 | 22617 ft | 414 kts | 72° |
| 2026-04-29 02:48 | -7.05606 | 113.73659 | 22959 ft | 418 kts | 72° |
| 2026-04-29 02:48 | -7.04687 | 113.76442 | 23362 ft | 420 kts | 72° |
| 2026-04-29 02:48 | -7.03761 | 113.79247 | 23647 ft | 424 kts | 72° |
| 2026-04-29 02:48 | -7.02830 | 113.82067 | 23979 ft | 425 kts | 72° |
| 2026-04-29 02:49 | -7.01896 | 113.84894 | 24283 ft | 427 kts | 72° |
| 2026-04-29 02:49 | -7.00955 | 113.87741 | 24615 ft | 429 kts | 72° |
| 2026-04-29 02:49 | -7.00011 | 113.90598 | 24877 ft | 432 kts | 72° |
| 2026-04-29 02:49 | -6.99062 | 113.93471 | 25183 ft | 433 kts | 72° |
| 2026-04-29 02:50 | -6.98107 | 113.96360 | 25445 ft | 436 kts | 72° |
| 2026-04-29 02:50 | -6.97147 | 113.99260 | 25765 ft | 437 kts | 72° |
| 2026-04-29 02:50 | -6.96173 | 114.02168 | 26012 ft | 441 kts | 72° |
| 2026-04-29 02:50 | -6.95188 | 114.05085 | 26354 ft | 440 kts | 71° |
| 2026-04-29 02:51 | -6.94197 | 114.08011 | 26563 ft | 444 kts | 72° |
| 2026-04-29 02:51 | -6.93198 | 114.10963 | 26830 ft | 446 kts | 71° |
| 2026-04-29 02:51 | -6.92196 | 114.13923 | 27101 ft | 447 kts | 71° |
| 2026-04-29 02:51 | -6.91179 | 114.16929 | 27397 ft | 448 kts | 71° |
| 2026-04-29 02:52 | -6.90173 | 114.19908 | 27596 ft | 451 kts | 71° |
| 2026-04-29 02:52 | -6.89161 | 114.22901 | 27882 ft | 452 kts | 71° |
| 2026-04-29 02:52 | -6.88147 | 114.25903 | 28076 ft | 455 kts | 71° |
| 2026-04-29 02:52 | -6.87127 | 114.28921 | 28342 ft | 456 kts | 71° |
| 2026-04-29 02:53 | -6.86102 | 114.31956 | 28513 ft | 459 kts | 71° |
| 2026-04-29 02:53 | -6.85077 | 114.34987 | 28806 ft | 459 kts | 71° |
| 2026-04-29 02:53 | -6.84047 | 114.38033 | 28971 ft | 461 kts | 71° |
| 2026-04-29 02:53 | -6.83014 | 114.41089 | 29229 ft | 462 kts | 71° |
| 2026-04-29 02:54 | -6.81975 | 114.44160 | 29383 ft | 465 kts | 71° |
| 2026-04-29 02:54 | -6.80933 | 114.47241 | 29622 ft | 465 kts | 71° |
| 2026-04-29 02:54 | -6.79888 | 114.50328 | 29783 ft | 468 kts | 71° |
| 2026-04-29 02:54 | -6.78839 | 114.53426 | 30020 ft | 468 kts | 71° |
| 2026-04-29 02:55 | -6.77788 | 114.56531 | 30142 ft | 470 kts | 71° |
| 2026-04-29 02:55 | -6.76733 | 114.59646 | 30383 ft | 469 kts | 71° |
| 2026-04-29 02:55 | -6.75682 | 114.62747 | 30663 ft | 468 kts | 71° |
| 2026-04-29 02:55 | -6.74633 | 114.65842 | 30915 ft | 467 kts | 71° |
| 2026-04-29 02:56 | -6.73585 | 114.68936 | 31097 ft | 468 kts | 71° |
| 2026-04-29 02:56 | -6.72536 | 114.72029 | 31356 ft | 467 kts | 71° |
| 2026-04-29 02:56 | -6.71490 | 114.75114 | 31622 ft | 466 kts | 71° |
| 2026-04-29 02:56 | -6.70444 | 114.78199 | 31866 ft | 465 kts | 71° |
| 2026-04-29 02:57 | -6.69399 | 114.81281 | 32106 ft | 465 kts | 71° |
| 2026-04-29 02:57 | -6.68356 | 114.84354 | 32337 ft | 465 kts | 71° |
| 2026-04-29 02:57 | -6.67312 | 114.87429 | 32620 ft | 464 kts | 71° |
| 2026-04-29 02:57 | -6.66270 | 114.90501 | 32857 ft | 464 kts | 71° |
| 2026-04-29 02:58 | -6.65230 | 114.93564 | 33150 ft | 462 kts | 71° |
| 2026-04-29 02:58 | -6.64193 | 114.96617 | 33387 ft | 462 kts | 71° |
| 2026-04-29 02:58 | -6.63154 | 114.99676 | 33648 ft | 461 kts | 71° |
| 2026-04-29 02:58 | -6.62116 | 115.02732 | 33869 ft | 462 kts | 71° |
| 2026-04-29 02:59 | -6.61080 | 115.05781 | 34108 ft | 461 kts | 71° |
| 2026-04-29 02:59 | -6.60044 | 115.08828 | 34339 ft | 460 kts | 71° |
| 2026-04-29 02:59 | -6.59009 | 115.11879 | 34663 ft | 456 kts | 72° |
| 2026-04-29 02:59 | -6.57997 | 115.14874 | 35051 ft | 452 kts | 71° |
| 2026-04-29 03:00 | -6.56981 | 115.17865 | 35242 ft | 453 kts | 71° |
| 2026-04-29 03:00 | -6.55955 | 115.20873 | 35382 ft | 455 kts | 71° |
| 2026-04-29 03:00 | -6.54929 | 115.23883 | 35556 ft | 455 kts | 71° |
| 2026-04-29 03:00 | -6.53901 | 115.26897 | 35735 ft | 456 kts | 71° |
| 2026-04-29 03:01 | -6.52875 | 115.29906 | 35981 ft | 454 kts | 71° |
| 2026-04-29 03:01 | -6.51852 | 115.32909 | 36202 ft | 454 kts | 71° |
| 2026-04-29 03:01 | -6.50830 | 115.35908 | 36408 ft | 454 kts | 71° |
| 2026-04-29 03:01 | -6.49807 | 115.38909 | 36585 ft | 454 kts | 71° |
| 2026-04-29 03:02 | -6.48785 | 115.41910 | 36804 ft | 453 kts | 71° |
| 2026-04-29 03:02 | -6.47763 | 115.44909 | 36918 ft | 454 kts | 71° |
| 2026-04-29 03:02 | -6.46736 | 115.47922 | 36912 ft | 456 kts | 71° |
| 2026-04-29 03:03 | -6.44686 | 115.53934 | 36915 ft | 453 kts | 71° |
| 2026-04-29 03:03 | -6.42637 | 115.59943 | 36916 ft | 450 kts | 71° |
| 2026-04-29 03:04 | -6.40612 | 115.65876 | 36919 ft | 447 kts | 71° |
| 2026-04-29 03:04 | -6.38596 | 115.71782 | 36923 ft | 446 kts | 71° |
| 2026-04-29 03:05 | -6.36581 | 115.77682 | 36924 ft | 446 kts | 71° |
| 2026-04-29 03:05 | -6.34561 | 115.83593 | 36927 ft | 448 kts | 71° |
| 2026-04-29 03:06 | -6.32533 | 115.89527 | 36926 ft | 450 kts | 71° |
| 2026-04-29 03:06 | -6.30495 | 115.95488 | 36925 ft | 452 kts | 71° |
| 2026-04-29 03:07 | -6.28445 | 116.01480 | 36926 ft | 454 kts | 71° |
| 2026-04-29 03:07 | -6.26385 | 116.07500 | 36925 ft | 456 kts | 71° |
| 2026-04-29 03:08 | -6.24302 | 116.13585 | 36920 ft | 458 kts | 71° |
| 2026-04-29 03:08 | -6.22225 | 116.19648 | 36923 ft | 459 kts | 71° |
| 2026-04-29 03:09 | -6.20159 | 116.25679 | 36917 ft | 460 kts | 71° |
| 2026-04-29 03:09 | -6.18063 | 116.31791 | 36918 ft | 460 kts | 71° |
| 2026-04-29 03:10 | -6.15979 | 116.37868 | 36924 ft | 459 kts | 71° |
| 2026-04-29 03:10 | -6.13904 | 116.43917 | 36921 ft | 458 kts | 71° |
| 2026-04-29 03:11 | -6.11831 | 116.49956 | 36922 ft | 457 kts | 71° |
| 2026-04-29 03:11 | -6.10112 | 116.54965 | 36919 ft | 456 kts | 71° |
| 2026-04-29 03:12 | -6.08047 | 116.60975 | 36920 ft | 454 kts | 71° |
| 2026-04-29 03:12 | -6.05987 | 116.66971 | 36920 ft | 453 kts | 71° |
| 2026-04-29 03:13 | -6.03930 | 116.72956 | 36923 ft | 453 kts | 71° |
| 2026-04-29 03:13 | -6.01876 | 116.78929 | 36918 ft | 452 kts | 71° |
| 2026-04-29 03:14 | -5.99823 | 116.84897 | 36921 ft | 452 kts | 71° |
| 2026-04-29 03:14 | -5.97770 | 116.90864 | 36917 ft | 452 kts | 71° |
| 2026-04-29 03:15 | -5.95699 | 116.96880 | 36924 ft | 453 kts | 71° |
| 2026-04-29 03:15 | -5.93654 | 117.02819 | 36916 ft | 453 kts | 71° |
| 2026-04-29 03:16 | -5.91592 | 117.08805 | 36920 ft | 454 kts | 71° |
| 2026-04-29 03:16 | -5.89510 | 117.14847 | 36921 ft | 455 kts | 71° |
| 2026-04-29 03:17 | -5.87478 | 117.20862 | 36914 ft | 455 kts | 75° |
| 2026-04-29 03:17 | -5.86285 | 117.27114 | 36917 ft | 456 kts | 81° |
| 2026-04-29 03:18 | -5.85368 | 117.33415 | 36917 ft | 456 kts | 81° |
| 2026-04-29 03:18 | -5.84399 | 117.39707 | 36917 ft | 456 kts | 81° |
| 2026-04-29 03:19 | -5.83367 | 117.45990 | 36919 ft | 455 kts | 80° |
| 2026-04-29 03:19 | -5.82314 | 117.52248 | 36918 ft | 454 kts | 80° |
| 2026-04-29 03:20 | -5.81261 | 117.58496 | 36909 ft | 454 kts | 80° |
| 2026-04-29 03:20 | -5.80211 | 117.64734 | 36914 ft | 452 kts | 80° |
| 2026-04-29 03:21 | -5.79163 | 117.70959 | 36914 ft | 451 kts | 80° |
| 2026-04-29 03:21 | -5.78119 | 117.77162 | 36911 ft | 451 kts | 80° |
| 2026-04-29 03:22 | -5.77074 | 117.83365 | 36915 ft | 450 kts | 80° |
| 2026-04-29 03:22 | -5.76030 | 117.89562 | 36915 ft | 450 kts | 80° |
| 2026-04-29 03:23 | -5.74984 | 117.95760 | 36917 ft | 450 kts | 80° |
| 2026-04-29 03:23 | -5.73938 | 118.01958 | 36917 ft | 450 kts | 80° |
| 2026-04-29 03:24 | -5.72891 | 118.08161 | 36916 ft | 451 kts | 80° |
| 2026-04-29 03:24 | -5.71841 | 118.14369 | 36914 ft | 451 kts | 80° |
| 2026-04-29 03:25 | -5.70789 | 118.20589 | 36911 ft | 452 kts | 80° |
| 2026-04-29 03:25 | -5.70262 | 118.23703 | 36718 ft | 456 kts | 80° |
| 2026-04-29 03:25 | -5.69728 | 118.26860 | 36181 ft | 458 kts | 80° |
| 2026-04-29 03:25 | -5.69196 | 118.30001 | 35584 ft | 457 kts | 80° |
| 2026-04-29 03:26 | -5.68663 | 118.33149 | 34949 ft | 458 kts | 80° |
| 2026-04-29 03:26 | -5.68127 | 118.36314 | 34264 ft | 460 kts | 80° |
| 2026-04-29 03:26 | -5.67591 | 118.39477 | 33682 ft | 459 kts | 80° |
| 2026-04-29 03:26 | -5.67057 | 118.42627 | 33140 ft | 456 kts | 80° |
| 2026-04-29 03:27 | -5.66527 | 118.45754 | 32658 ft | 452 kts | 80° |
| 2026-04-29 03:27 | -5.65921 | 118.48843 | 32165 ft | 448 kts | 72° |
| 2026-04-29 03:27 | -5.64615 | 118.51655 | 31686 ft | 445 kts | 56° |
| 2026-04-29 03:27 | -5.62645 | 118.54037 | 31207 ft | 442 kts | 47° |
| 2026-04-29 03:28 | -5.60533 | 118.56267 | 30717 ft | 440 kts | 46° |
| 2026-04-29 03:28 | -5.58419 | 118.58468 | 30274 ft | 436 kts | 46° |
| 2026-04-29 03:28 | -5.56326 | 118.60662 | 29777 ft | 434 kts | 47° |
| 2026-04-29 03:28 | -5.54261 | 118.62852 | 29272 ft | 430 kts | 47° |
| 2026-04-29 03:29 | -5.52227 | 118.65031 | 28782 ft | 426 kts | 47° |
| 2026-04-29 03:29 | -5.50218 | 118.67193 | 28311 ft | 422 kts | 47° |
| 2026-04-29 03:29 | -5.48231 | 118.69337 | 27850 ft | 418 kts | 47° |
| 2026-04-29 03:29 | -5.46259 | 118.71464 | 27398 ft | 414 kts | 47° |
| 2026-04-29 03:30 | -5.44307 | 118.73567 | 26950 ft | 410 kts | 47° |
| 2026-04-29 03:30 | -5.42367 | 118.75655 | 26506 ft | 407 kts | 47° |
| 2026-04-29 03:30 | -5.40440 | 118.77729 | 26074 ft | 404 kts | 47° |
| 2026-04-29 03:30 | -5.38533 | 118.79782 | 25639 ft | 401 kts | 48° |
| 2026-04-29 03:31 | -5.34754 | 118.83851 | 24745 ft | 397 kts | 48° |
| 2026-04-29 03:31 | -5.32875 | 118.85875 | 24305 ft | 395 kts | 48° |
| 2026-04-29 03:31 | -5.31000 | 118.87894 | 23864 ft | 394 kts | 48° |
| 2026-04-29 03:32 | -5.29136 | 118.89902 | 23406 ft | 393 kts | 48° |
| 2026-04-29 03:32 | -5.27281 | 118.91899 | 22906 ft | 390 kts | 48° |
| 2026-04-29 03:32 | -5.25438 | 118.93884 | 22455 ft | 387 kts | 48° |
| 2026-04-29 03:32 | -5.23609 | 118.95853 | 22016 ft | 384 kts | 48° |
| 2026-04-29 03:33 | -5.21795 | 118.97805 | 21587 ft | 381 kts | 48° |
| 2026-04-29 03:33 | -5.19993 | 118.99746 | 21158 ft | 378 kts | 48° |
| 2026-04-29 03:33 | -5.18208 | 119.01668 | 20738 ft | 375 kts | 48° |
| 2026-04-29 03:33 | -5.16431 | 119.03580 | 20325 ft | 373 kts | 48° |
| 2026-04-29 03:34 | -5.14662 | 119.05464 | 19897 ft | 371 kts | 45° |
| 2026-04-29 03:34 | -5.12552 | 119.06944 | 19455 ft | 373 kts | 25° |
| 2026-04-29 03:34 | -5.10113 | 119.07827 | 19053 ft | 372 kts | 20° |
| 2026-04-29 03:34 | -5.07647 | 119.08607 | 18628 ft | 372 kts | 19° |
| 2026-04-29 03:35 | -5.05181 | 119.09381 | 18203 ft | 371 kts | 19° |
| 2026-04-29 03:35 | -5.02733 | 119.10171 | 17747 ft | 369 kts | 20° |
| 2026-04-29 03:35 | -5.00304 | 119.10971 | 17309 ft | 366 kts | 20° |
| 2026-04-29 03:35 | -4.97897 | 119.11770 | 16886 ft | 363 kts | 20° |
| 2026-04-29 03:36 | -4.95490 | 119.12571 | 16322 ft | 365 kts | 20° |
| 2026-04-29 03:36 | -4.93080 | 119.13371 | 15777 ft | 366 kts | 20° |
| 2026-04-29 03:36 | -4.90660 | 119.14175 | 15228 ft | 367 kts | 20° |
| 2026-04-29 03:36 | -4.88239 | 119.14978 | 14654 ft | 364 kts | 19° |
| 2026-04-29 03:37 | -4.85852 | 119.15770 | 14091 ft | 359 kts | 19° |
| 2026-04-29 03:37 | -4.83497 | 119.16552 | 13513 ft | 354 kts | 19° |
| 2026-04-29 03:37 | -4.81176 | 119.17322 | 12929 ft | 349 kts | 19° |
| 2026-04-29 03:37 | -4.78886 | 119.18082 | 12396 ft | 343 kts | 19° |
| 2026-04-29 03:38 | -4.76638 | 119.18828 | 11876 ft | 338 kts | 19° |
| 2026-04-29 03:38 | -4.74426 | 119.19562 | 11373 ft | 333 kts | 19° |
| 2026-04-29 03:38 | -4.72240 | 119.20286 | 10867 ft | 327 kts | 19° |
| 2026-04-29 03:38 | -4.70161 | 119.21134 | 10358 ft | 320 kts | 33° |
| 2026-04-29 03:39 | -4.68599 | 119.22667 | 9932 ft | 311 kts | 58° |
| 2026-04-29 03:39 | -4.67732 | 119.24560 | 9891 ft | 289 kts | 75° |
| 2026-04-29 03:39 | -4.67445 | 119.26515 | 9577 ft | 282 kts | 86° |
| 2026-04-29 03:39 | -4.67346 | 119.28447 | 9347 ft | 274 kts | 88° |
| 2026-04-29 03:40 | -4.67279 | 119.30343 | 9160 ft | 272 kts | 88° |
| 2026-04-29 03:40 | -4.67212 | 119.32243 | 8985 ft | 274 kts | 88° |
| 2026-04-29 03:40 | -4.67139 | 119.34158 | 8804 ft | 275 kts | 88° |
| 2026-04-29 03:40 | -4.67059 | 119.36079 | 8625 ft | 277 kts | 88° |
| 2026-04-29 03:41 | -4.66974 | 119.38016 | 8443 ft | 279 kts | 87° |
| 2026-04-29 03:41 | -4.66886 | 119.39964 | 8266 ft | 281 kts | 87° |
| 2026-04-29 03:41 | -4.66796 | 119.41909 | 8075 ft | 278 kts | 87° |
| 2026-04-29 03:41 | -4.66706 | 119.43829 | 7890 ft | 274 kts | 87° |
| 2026-04-29 03:42 | -4.66617 | 119.45720 | 7716 ft | 270 kts | 87° |
| 2026-04-29 03:42 | -4.66529 | 119.47593 | 7548 ft | 268 kts | 87° |
| 2026-04-29 03:42 | -4.66440 | 119.49456 | 7383 ft | 267 kts | 87° |
| 2026-04-29 03:42 | -4.66352 | 119.51316 | 7209 ft | 266 kts | 87° |
| 2026-04-29 03:43 | -4.66264 | 119.53164 | 7041 ft | 265 kts | 87° |
| 2026-04-29 03:43 | -4.66345 | 119.54999 | 6844 ft | 265 kts | 107° |
| 2026-04-29 03:43 | -4.67199 | 119.56618 | 6715 ft | 263 kts | 125° |
| 2026-04-29 03:43 | -4.68326 | 119.58062 | 6544 ft | 263 kts | 128° |
| 2026-04-29 03:44 | -4.69486 | 119.59488 | 6369 ft | 264 kts | 128° |
| 2026-04-29 03:44 | -4.70643 | 119.60921 | 6207 ft | 265 kts | 128° |
| 2026-04-29 03:44 | -4.71828 | 119.62332 | 6014 ft | 266 kts | 136° |
| 2026-04-29 03:44 | -4.73457 | 119.63214 | 5759 ft | 271 kts | 164° |
| 2026-04-29 03:45 | -4.75309 | 119.63537 | 5470 ft | 271 kts | 172° |
| 2026-04-29 03:45 | -4.77175 | 119.63772 | 5169 ft | 270 kts | 172° |
| 2026-04-29 03:45 | -4.79033 | 119.64003 | 4877 ft | 268 kts | 172° |
| 2026-04-29 03:45 | -4.80877 | 119.64240 | 4598 ft | 267 kts | 171° |
| 2026-04-29 03:46 | -4.82724 | 119.64482 | 4316 ft | 268 kts | 171° |
| 2026-04-29 03:46 | -4.84533 | 119.64726 | 4276 ft | 255 kts | 170° |
| 2026-04-29 03:46 | -4.86227 | 119.64956 | 4149 ft | 238 kts | 170° |
| 2026-04-29 03:46 | -4.87813 | 119.65175 | 4027 ft | 222 kts | 171° |
| 2026-04-29 03:47 | -4.89313 | 119.65371 | 3898 ft | 206 kts | 175° |
| 2026-04-29 03:47 | -4.90639 | 119.65080 | 3736 ft | 194 kts | 205° |
| 2026-04-29 03:47 | -4.91448 | 119.64660 | 3426 ft | 197 kts | 205° |
| 2026-04-29 03:47 | -4.92641 | 119.64011 | 3134 ft | 190 kts | 208° |
| 2026-04-29 03:48 | -4.93777 | 119.63362 | 2890 ft | 186 kts | 208° |
| 2026-04-29 03:48 | -4.94877 | 119.62725 | 2657 ft | 178 kts | 209° |
| 2026-04-29 03:48 | -4.95893 | 119.62135 | 2465 ft | 159 kts | 209° |
| 2026-04-29 03:48 | -4.96835 | 119.61588 | 2255 ft | 156 kts | 209° |
| 2026-04-29 03:49 | -4.97780 | 119.61041 | 2039 ft | 152 kts | 212° |
| 2026-04-29 03:49 | -4.98676 | 119.60519 | 1847 ft | 146 kts | 211° |
| 2026-04-29 03:49 | -4.99551 | 119.60011 | 1667 ft | 145 kts | 210° |
| 2026-04-29 03:49 | -5.00427 | 119.59503 | 1492 ft | 146 kts | 211° |
| 2026-04-29 03:50 | -5.01308 | 119.58991 | 1300 ft | 146 kts | 210° |
| 2026-04-29 03:50 | -5.02184 | 119.58483 | 1099 ft | 145 kts | 210° |
| 2026-04-29 03:50 | -5.03055 | 119.57978 | 912 ft | 144 kts | 211° |
| 2026-04-29 03:50 | -5.03920 | 119.57475 | 731 ft | 144 kts | 211° |
| 2026-04-29 03:51 | -5.04782 | 119.56975 | 541 ft | 141 kts | 211° |
| 2026-04-29 03:51 | -5.05634 | 119.56481 | 364 ft | 142 kts | 211° |
| 2026-04-29 03:51 | -5.06488 | 119.55985 | 160 ft | 140 kts | 211° |
| 2026-04-29 03:51 | -5.07324 | 119.55500 | 40 ft | 133 kts | 211° |
| 2026-04-29 03:52 | -5.07977 | 119.55120 | 39 ft | 78 kts | 210° |
| 2026-04-29 03:52 | -5.08267 | 119.54949 | 38 ft | 27 kts | 208° |
| 2026-04-29 03:52 | -5.08417 | 119.54869 | 39 ft | 17 kts | 208° |
| 2026-04-29 03:52 | -5.08511 | 119.54799 | 40 ft | 16 kts | 233° |
| 2026-04-29 03:53 | -5.08561 | 119.54714 | 39 ft | 12 kts | 241° |
| 2026-04-29 03:53 | -5.08598 | 119.54650 | 40 ft | 7 kts | 239° |
| 2026-04-29 03:53 | -5.08608 | 119.54605 | 41 ft | 7 kts | 278° |
| 2026-04-29 03:53 | -5.08571 | 119.54584 | 40 ft | 7 kts | 7° |
| 2026-04-29 03:54 | -5.08528 | 119.54605 | 40 ft | 7 kts | 30° |
| 2026-04-29 03:54 | -5.08487 | 119.54628 | 40 ft | 7 kts | 30° |
| 2026-04-29 03:54 | -5.08447 | 119.54652 | 40 ft | 7 kts | 30° |
| 2026-04-29 03:54 | -5.08408 | 119.54674 | 40 ft | 6 kts | 30° |
| 2026-04-29 03:55 | -5.08370 | 119.54696 | 40 ft | 6 kts | 30° |
| 2026-04-29 03:55 | -5.08330 | 119.54719 | 40 ft | 7 kts | 30° |
| 2026-04-29 03:55 | -5.08284 | 119.54745 | 40 ft | 9 kts | 30° |
| 2026-04-29 03:55 | -5.08226 | 119.54778 | 40 ft | 11 kts | 30° |
| 2026-04-29 03:56 | -5.08157 | 119.54818 | 40 ft | 12 kts | 29° |
| 2026-04-29 03:56 | -5.08081 | 119.54839 | 40 ft | 11 kts | 342° |
| 2026-04-29 03:56 | -5.08033 | 119.54786 | 40 ft | 7 kts | 301° |
| 2026-04-29 03:56 | -5.08007 | 119.54743 | 40 ft | 6 kts | 300° |
| 2026-04-29 03:57 | -5.08000 | 119.54705 | 40 ft | 6 kts | 255° |
| 2026-04-29 03:57 | -5.08029 | 119.54678 | 40 ft | 6 kts | 216° |
| 2026-04-29 03:57 | -5.08059 | 119.54653 | 40 ft | 6 kts | 225° |
| 2026-04-29 03:57 | -5.08089 | 119.54628 | 40 ft | 6 kts | 212° |
| 2026-04-29 03:58 | -5.08121 | 119.54607 | 40 ft | 5 kts | 219° |
| 2026-04-29 03:58 | -5.08132 | 119.54573 | 40 ft | 5 kts | 284° |
| 2026-04-29 03:58 | -5.08113 | 119.54540 | 39 ft | 6 kts | 316° |
| 2026-04-29 03:58 | -5.08076 | 119.54531 | 40 ft | 5 kts | 353° |
| 2026-04-29 03:59 | -5.08055 | 119.54531 | 40 ft | 2 kts | 359° |
| 2026-04-29 03:59 | -5.08040 | 119.54530 | 40 ft | 2 kts | 358° |
| 2026-04-29 03:59 | -5.08026 | 119.54530 | 40 ft | 0 kts | 358° |